createdAt,value
2023-04-22T00:00:27.514Z,13.80
2023-04-22T00:02:56.838Z,13.80
2023-04-22T00:05:24.357Z,13.70
2023-04-22T00:07:51.632Z,13.70
2023-04-22T00:10:18.828Z,13.70
2023-04-22T00:12:45.837Z,13.60
2023-04-22T00:15:13.053Z,13.60
2023-04-22T00:17:41.055Z,13.50
2023-04-22T00:20:09.033Z,13.50
2023-04-22T00:22:36.249Z,13.50
2023-04-22T00:25:05.105Z,13.50
2023-04-22T00:27:32.159Z,13.50
2023-04-22T00:29:59.316Z,13.50
2023-04-22T00:32:27.192Z,13.50
2023-04-22T00:34:54.605Z,13.50
2023-04-22T00:37:23.402Z,13.60
2023-04-22T00:39:51.112Z,13.50
2023-04-22T00:42:18.172Z,13.50
2023-04-22T00:44:47.725Z,13.50
2023-04-22T00:47:15.378Z,13.50
2023-04-22T00:49:42.876Z,13.40
2023-04-22T00:52:09.880Z,13.40
2023-04-22T00:54:37.439Z,13.40
2023-04-22T00:57:06.225Z,13.40
2023-04-22T00:59:33.935Z,13.50
2023-04-22T01:02:01.804Z,13.50
2023-04-22T01:04:28.938Z,13.50
2023-04-22T01:06:56.459Z,13.40
2023-04-22T01:09:23.736Z,13.40
2023-04-22T01:11:50.930Z,13.40
2023-04-22T01:14:18.046Z,13.40
2023-04-22T01:16:46.092Z,13.40
2023-04-22T01:19:13.205Z,13.40
2023-04-22T01:21:41.172Z,13.40
2023-04-22T01:24:09.366Z,13.40
2023-04-22T01:26:36.833Z,13.30
2023-04-22T01:29:04.528Z,13.20
2023-04-22T01:31:31.638Z,13.20
2023-04-22T01:33:59.386Z,13.10
2023-04-22T01:36:27.005Z,13.00
2023-04-22T01:38:57.828Z,12.90
2023-04-22T01:41:24.875Z,12.90
2023-04-22T01:43:53.254Z,12.90
2023-04-22T01:46:20.509Z,12.80
2023-04-22T01:48:51.756Z,12.70
2023-04-22T01:51:21.200Z,12.70
2023-04-22T01:53:51.743Z,12.60
2023-04-22T01:56:19.095Z,12.60
2023-04-22T01:58:46.162Z,12.50
2023-04-22T02:01:13.689Z,12.50
2023-04-22T02:03:41.825Z,12.50
2023-04-22T02:06:12.036Z,12.50
2023-04-22T02:08:42.101Z,12.40
2023-04-22T02:11:09.238Z,12.40
2023-04-22T02:13:37.536Z,12.40
2023-04-22T02:16:05.582Z,12.40
2023-04-22T02:18:32.898Z,12.40
2023-04-22T02:21:00.224Z,12.30
2023-04-22T02:23:27.854Z,12.30
2023-04-22T02:25:56.094Z,12.30
2023-04-22T02:28:23.294Z,12.20
2023-04-22T02:30:50.262Z,12.20
2023-04-22T02:33:17.424Z,12.10
2023-04-22T02:35:44.464Z,12.10
2023-04-22T02:38:11.994Z,12.00
2023-04-22T02:40:42.392Z,12.00
2023-04-22T02:43:09.644Z,11.90
2023-04-22T02:45:36.622Z,11.80
2023-04-22T02:48:03.668Z,11.80
2023-04-22T02:50:31.210Z,11.70
2023-04-22T02:52:58.275Z,11.70
2023-04-22T02:55:25.845Z,11.60
2023-04-22T02:57:52.994Z,11.60
2023-04-22T03:00:20.359Z,11.60
2023-04-22T03:02:47.508Z,11.60
2023-04-22T03:05:15.031Z,11.50
2023-04-22T03:07:42.259Z,11.50
2023-04-22T03:10:09.861Z,11.50
2023-04-22T03:12:37.110Z,11.50
2023-04-22T03:15:04.310Z,11.50
2023-04-22T03:17:31.574Z,11.40
2023-04-22T03:19:58.895Z,11.40
2023-04-22T03:22:26.158Z,11.40
2023-04-22T03:24:53.638Z,11.30
2023-04-22T03:27:20.705Z,11.30
2023-04-22T03:29:47.679Z,11.30
2023-04-22T03:32:14.780Z,11.30
2023-04-22T03:34:42.095Z,11.20
2023-04-22T03:37:09.639Z,11.20
2023-04-22T03:39:41.375Z,11.10
2023-04-22T03:42:09.614Z,11.10
2023-04-22T03:44:36.793Z,11.10
2023-04-22T03:47:04.126Z,11.10
2023-04-22T03:49:32.440Z,11.10
2023-04-22T03:52:00.135Z,11.10
2023-04-22T03:54:27.660Z,11.00
2023-04-22T03:56:54.644Z,11.00
2023-04-22T03:59:22.163Z,11.00
2023-04-22T04:01:51.477Z,11.00
2023-04-22T04:04:18.734Z,11.00
2023-04-22T04:06:46.428Z,11.00
2023-04-22T04:09:13.491Z,10.90
2023-04-22T04:11:40.696Z,10.90
2023-04-22T04:14:10.097Z,10.90
2023-04-22T04:16:37.458Z,10.80
2023-04-22T04:19:04.584Z,10.80
2023-04-22T04:21:33.923Z,10.80
2023-04-22T04:24:00.994Z,10.80
2023-04-22T04:26:28.016Z,10.70
2023-04-22T04:28:56.528Z,10.70
2023-04-22T04:31:25.148Z,10.70
2023-04-22T04:33:53.388Z,10.70
2023-04-22T04:36:20.367Z,10.70
2023-04-22T04:38:48.345Z,10.60
2023-04-22T04:41:15.839Z,10.70
2023-04-22T04:43:43.332Z,10.80
2023-04-22T04:46:10.500Z,10.80
2023-04-22T04:48:37.845Z,10.90
2023-04-22T04:51:06.573Z,11.00
2023-04-22T04:53:33.737Z,11.00
2023-04-22T04:56:01.305Z,11.00
2023-04-22T04:58:30.433Z,11.00
2023-04-22T05:00:57.648Z,11.00
2023-04-22T05:03:24.849Z,11.00
2023-04-22T05:05:52.166Z,11.10
2023-04-22T05:08:19.421Z,11.10
2023-04-22T05:10:46.699Z,11.20
2023-04-22T05:13:14.221Z,11.30
2023-04-22T05:15:41.497Z,11.30
2023-04-22T05:18:08.747Z,11.40
2023-04-22T05:20:36.303Z,11.40
2023-04-22T05:23:03.490Z,11.50
2023-04-22T05:25:31.019Z,11.50
2023-04-22T05:27:58.300Z,11.60
2023-04-22T05:30:25.619Z,11.70
2023-04-22T05:32:52.695Z,11.70
2023-04-22T05:35:22.900Z,11.80
2023-04-22T05:37:56.174Z,11.80
2023-04-22T05:40:26.613Z,11.90
2023-04-22T05:42:53.793Z,12.00
2023-04-22T05:45:20.839Z,12.10
2023-04-22T05:47:48.028Z,12.10
2023-04-22T05:50:15.493Z,12.20
2023-04-22T05:52:42.955Z,12.20
2023-04-22T05:55:12.270Z,12.30
2023-04-22T05:57:42.473Z,12.30
2023-04-22T06:00:12.829Z,12.40
2023-04-22T06:02:40.420Z,12.40
2023-04-22T06:05:08.002Z,12.50
2023-04-22T06:07:35.358Z,12.50
2023-04-22T06:10:05.336Z,12.60
2023-04-22T06:12:33.727Z,12.60
2023-04-22T06:15:01.135Z,12.70
2023-04-22T06:17:28.324Z,12.70
2023-04-22T06:19:56.962Z,12.80
2023-04-22T06:22:24.723Z,12.80
2023-04-22T06:24:51.719Z,12.80
2023-04-22T06:27:18.751Z,12.90
2023-04-22T06:29:46.014Z,12.90
2023-04-22T06:32:13.709Z,13.00
2023-04-22T06:34:41.247Z,13.00
2023-04-22T06:37:12.249Z,13.10
2023-04-22T06:39:39.961Z,13.20
2023-04-22T06:42:08.196Z,13.20
2023-04-22T06:44:35.270Z,13.20
2023-04-22T06:47:02.589Z,13.30
2023-04-22T06:49:29.929Z,13.30
2023-04-22T06:51:57.157Z,13.40
2023-04-22T06:54:24.227Z,13.50
2023-04-22T06:56:51.221Z,13.50
2023-04-22T06:59:19.261Z,13.60
2023-04-22T07:01:46.756Z,13.60
2023-04-22T07:04:13.822Z,13.70
2023-04-22T07:06:41.199Z,13.80
2023-04-22T07:09:08.557Z,13.80
2023-04-22T07:11:35.681Z,13.90
2023-04-22T07:14:02.766Z,14.00
2023-04-22T07:16:29.907Z,14.00
2023-04-22T07:18:57.949Z,14.10
2023-04-22T07:21:25.078Z,14.20
2023-04-22T07:23:52.328Z,14.30
2023-04-22T07:26:20.383Z,14.30
2023-04-22T07:28:47.711Z,14.40
2023-04-22T07:31:20.751Z,14.50
2023-04-22T07:33:48.002Z,14.50
2023-04-22T07:36:15.202Z,14.60
2023-04-22T07:38:42.365Z,14.70
2023-04-22T07:41:17.568Z,14.80
2023-04-22T07:43:44.926Z,14.90
2023-04-22T07:46:12.570Z,14.90
2023-04-22T07:48:42.189Z,14.90
2023-04-22T07:51:13.442Z,15.00
2023-04-22T07:53:44.392Z,15.00
2023-04-22T07:56:15.399Z,15.10
2023-04-22T07:58:43.968Z,15.10
2023-04-22T08:01:11.139Z,15.20
2023-04-22T08:03:38.435Z,15.30
2023-04-22T08:06:05.927Z,15.40
2023-04-22T08:08:33.055Z,15.40
2023-04-22T08:10:59.956Z,15.50
2023-04-22T08:13:27.192Z,15.60
2023-04-22T08:15:54.580Z,15.60
2023-04-22T08:18:22.284Z,15.60
2023-04-22T08:20:50.801Z,15.70
2023-04-22T08:23:18.101Z,15.80
2023-04-22T08:25:45.647Z,15.90
2023-04-22T08:28:13.030Z,16.00
2023-04-22T08:30:40.074Z,16.10
2023-04-22T08:33:07.315Z,16.20
2023-04-22T08:35:38.214Z,16.30
2023-04-22T08:38:05.552Z,16.40
2023-04-22T08:40:32.657Z,16.50
2023-04-22T08:42:59.646Z,16.60
2023-04-22T08:45:27.593Z,16.60
2023-04-22T08:47:54.817Z,16.70
2023-04-22T08:50:25.742Z,16.80
2023-04-22T08:52:52.758Z,16.90
2023-04-22T08:55:19.849Z,17.00
2023-04-22T08:57:48.139Z,17.10
2023-04-22T09:00:16.219Z,17.20
2023-04-22T09:02:47.125Z,17.30
2023-04-22T09:05:15.151Z,17.40
2023-04-22T09:07:42.869Z,17.40
2023-04-22T09:10:12.119Z,17.50
2023-04-22T09:12:41.315Z,17.60
2023-04-22T09:15:09.541Z,17.70
2023-04-22T09:17:39.718Z,17.80
2023-04-22T09:20:07.904Z,17.90
2023-04-22T09:22:42.780Z,18.00
2023-04-22T09:25:23.334Z,18.20
2023-04-22T09:27:57.624Z,18.30
2023-04-22T09:30:26.832Z,18.40
2023-04-22T09:32:55.518Z,18.60
2023-04-22T09:35:31.840Z,18.70
2023-04-22T09:37:59.677Z,18.80
2023-04-22T09:40:27.250Z,19.00
2023-04-22T09:42:55.883Z,19.20
2023-04-22T09:45:40.848Z,19.40
2023-04-22T09:48:11.285Z,19.50
2023-04-22T09:50:39.859Z,19.70
2023-04-22T09:53:08.898Z,19.80
2023-04-22T09:55:38.973Z,19.90
2023-04-22T09:58:08.702Z,20.00
2023-04-22T10:00:40.848Z,20.10
2023-04-22T10:03:10.755Z,20.20
2023-04-22T10:05:40.858Z,20.40
2023-04-22T10:08:08.976Z,20.50
2023-04-22T10:10:37.321Z,20.60
2023-04-22T10:13:05.151Z,20.70
2023-04-22T10:15:37.255Z,20.80
2023-04-22T10:18:06.992Z,20.90
2023-04-22T10:20:36.804Z,21.10
2023-04-22T10:23:07.212Z,21.10
2023-04-22T10:25:34.464Z,21.20
2023-04-22T10:28:06.027Z,21.30
2023-04-22T10:30:34.337Z,21.40
2023-04-22T10:33:20.085Z,21.60
2023-04-22T10:36:06.238Z,21.70
2023-04-22T10:38:36.903Z,21.90
2023-04-22T10:41:04.233Z,22.00
2023-04-22T10:43:41.893Z,22.20
2023-04-22T10:46:28.998Z,22.40
2023-04-22T10:48:59.718Z,22.50
2023-04-22T10:51:40.182Z,22.70
2023-04-22T10:54:07.969Z,22.80
2023-04-22T10:56:36.293Z,23.00
2023-04-22T10:59:16.303Z,23.10
2023-04-22T11:01:46.208Z,23.20
2023-04-22T11:04:20.868Z,23.40
2023-04-22T11:07:08.105Z,23.40
2023-04-22T11:09:41.852Z,23.50
2023-04-22T11:12:27.995Z,23.60
2023-04-22T11:14:55.798Z,23.70
2023-04-22T11:17:23.069Z,23.80
2023-04-22T11:19:52.628Z,24.00
2023-04-22T11:22:19.932Z,24.10
2023-04-22T11:25:00.324Z,24.20
2023-04-22T11:27:27.761Z,24.20
2023-04-22T11:30:01.285Z,24.40
2023-04-22T11:32:29.296Z,24.50
2023-04-22T11:34:58.382Z,24.60
2023-04-22T11:37:26.175Z,24.70
2023-04-22T11:40:13.646Z,24.80
2023-04-22T11:42:42.620Z,24.90
2023-04-22T11:45:11.056Z,25.00
2023-04-22T11:47:38.148Z,25.00
2023-04-22T11:50:07.481Z,25.10
2023-04-22T11:52:48.620Z,25.20
2023-04-22T11:55:16.494Z,25.30
2023-04-22T11:57:43.583Z,25.40
2023-04-22T12:00:15.269Z,25.40
2023-04-22T12:02:42.436Z,25.50
2023-04-22T12:05:13.325Z,25.50
2023-04-22T12:07:40.450Z,25.40
2023-04-22T12:10:08.339Z,25.40
2023-04-22T12:12:40.073Z,25.40
2023-04-22T12:15:13.534Z,25.40
2023-04-22T12:17:41.213Z,25.30
2023-04-22T12:20:11.753Z,25.40
2023-04-22T12:22:39.476Z,25.40
2023-04-22T12:25:07.244Z,25.40
2023-04-22T12:27:35.435Z,25.40
2023-04-22T12:30:03.434Z,25.40
2023-04-22T12:32:30.462Z,25.40
2023-04-22T12:34:57.632Z,25.40
2023-04-22T12:37:24.711Z,25.40
2023-04-22T12:39:52.146Z,25.40
2023-04-22T12:42:19.148Z,25.50
2023-04-22T12:44:47.128Z,25.50
2023-04-22T12:47:14.579Z,25.50
2023-04-22T12:49:42.540Z,25.30
2023-04-22T12:52:11.376Z,25.30
2023-04-22T12:54:38.573Z,25.30
2023-04-22T12:57:06.251Z,25.40
2023-04-22T12:59:33.320Z,25.40
2023-04-22T13:02:00.726Z,25.30
2023-04-22T13:04:27.869Z,25.30
2023-04-22T13:06:58.038Z,25.30
2023-04-22T13:09:25.886Z,25.30
2023-04-22T13:11:53.193Z,25.40
2023-04-22T13:14:20.496Z,25.50
2023-04-22T13:16:47.478Z,25.60
2023-04-22T13:19:15.290Z,25.60
2023-04-22T13:21:43.502Z,25.60
2023-04-22T13:24:10.761Z,25.60
2023-04-22T13:26:39.333Z,25.50
2023-04-22T13:29:11.374Z,25.40
2023-04-22T13:31:39.061Z,25.50
2023-04-22T13:34:06.193Z,25.50
2023-04-22T13:36:33.406Z,25.50
2023-04-22T13:39:00.872Z,25.50
2023-04-22T13:41:27.896Z,25.50
2023-04-22T13:43:56.325Z,25.50
2023-04-22T13:46:23.965Z,25.60
2023-04-22T13:48:51.608Z,25.60
2023-04-22T13:51:18.764Z,25.60
2023-04-22T13:53:46.785Z,25.70
2023-04-22T13:56:13.901Z,25.60
2023-04-22T13:58:42.692Z,25.50
2023-04-22T14:01:10.072Z,25.50
2023-04-22T14:03:37.450Z,25.40
2023-04-22T14:06:05.138Z,25.40
2023-04-22T14:08:32.735Z,25.30
2023-04-22T14:10:59.911Z,25.30
2023-04-22T14:13:27.389Z,25.30
2023-04-22T14:15:54.512Z,25.30
2023-04-22T14:18:24.513Z,25.30
2023-04-22T14:20:52.901Z,25.30
2023-04-22T14:23:20.303Z,25.30
2023-04-22T14:25:49.184Z,25.30
2023-04-22T14:28:17.047Z,25.20
2023-04-22T14:30:44.557Z,25.10
2023-04-22T14:33:12.592Z,25.00
2023-04-22T14:35:40.142Z,24.90
2023-04-22T14:38:08.877Z,24.80
2023-04-22T14:40:36.350Z,24.70
2023-04-22T14:43:04.749Z,24.60
2023-04-22T14:45:32.437Z,24.50
2023-04-22T14:47:59.702Z,24.40
2023-04-22T14:50:27.412Z,24.40
2023-04-22T14:52:54.843Z,24.20
2023-04-22T14:55:24.007Z,24.10
2023-04-22T14:57:52.611Z,24.10
2023-04-22T15:00:19.821Z,24.00
2023-04-22T15:02:47.267Z,23.90
2023-04-22T15:05:14.697Z,23.80
2023-04-22T15:07:41.878Z,23.70
2023-04-22T15:10:10.625Z,23.60
2023-04-22T15:12:37.669Z,23.40
2023-04-22T15:15:04.941Z,23.30
2023-04-22T15:17:32.243Z,23.10
2023-04-22T15:19:59.788Z,23.00
2023-04-22T15:22:27.355Z,22.80
2023-04-22T15:24:54.440Z,22.70
2023-04-22T15:27:22.292Z,22.60
2023-04-22T15:29:49.439Z,22.50
2023-04-22T15:32:17.025Z,22.40
2023-04-22T15:34:44.162Z,22.30
2023-04-22T15:37:13.454Z,22.20
2023-04-22T15:39:43.927Z,22.10
2023-04-22T15:42:11.021Z,22.00
2023-04-22T15:44:38.424Z,21.90
2023-04-22T15:47:05.814Z,21.90
2023-04-22T15:49:33.539Z,21.80
2023-04-22T15:52:01.693Z,21.70
2023-04-22T15:54:28.695Z,21.70
2023-04-22T15:56:55.735Z,21.60
2023-04-22T15:59:22.907Z,21.60
2023-04-22T16:01:50.942Z,21.60
2023-04-22T16:04:19.241Z,21.50
2023-04-22T16:06:48.422Z,21.40
2023-04-22T16:09:17.237Z,21.40
2023-04-22T16:11:44.425Z,21.30
2023-04-22T16:14:12.502Z,21.30
2023-04-22T16:16:40.102Z,21.20
2023-04-22T16:19:08.991Z,21.20
2023-04-22T16:21:36.017Z,21.10
2023-04-22T16:24:03.105Z,21.10
2023-04-22T16:26:30.609Z,21.00
2023-04-22T16:28:58.027Z,20.90
2023-04-22T16:31:25.713Z,20.90
2023-04-22T16:33:52.937Z,20.80
2023-04-22T16:36:22.784Z,20.80
2023-04-22T16:38:50.153Z,20.70
2023-04-22T16:41:17.642Z,20.70
2023-04-22T16:43:44.920Z,20.60
2023-04-22T16:46:12.702Z,20.60
2023-04-22T16:48:40.496Z,20.50
2023-04-22T16:51:07.861Z,20.40
2023-04-22T16:53:36.336Z,20.40
2023-04-22T16:56:03.974Z,20.40
2023-04-22T16:58:31.127Z,20.30
2023-04-22T17:00:58.474Z,20.30
2023-04-22T17:03:26.417Z,20.30
2023-04-22T17:05:53.724Z,20.30
2023-04-22T17:08:20.796Z,20.30
2023-04-22T17:10:48.766Z,20.30
2023-04-22T17:13:16.296Z,20.20
2023-04-22T17:15:43.515Z,20.20
2023-04-22T17:18:11.047Z,20.10
2023-04-22T17:20:39.477Z,20.10
2023-04-22T17:23:06.553Z,20.10
2023-04-22T17:25:33.735Z,20.00
2023-04-22T17:28:02.337Z,19.90
2023-04-22T17:30:29.648Z,19.90
2023-04-22T17:32:57.200Z,19.80
2023-04-22T17:35:25.180Z,19.70
2023-04-22T17:37:54.033Z,19.60
2023-04-22T17:40:22.174Z,19.50
2023-04-22T17:42:49.240Z,19.40
2023-04-22T17:45:19.510Z,19.40
2023-04-22T17:47:48.861Z,19.30
2023-04-22T17:50:16.050Z,19.20
2023-04-22T17:52:44.079Z,19.20
2023-04-22T17:55:11.529Z,19.20
2023-04-22T17:57:38.708Z,19.10
2023-04-22T18:00:06.370Z,19.10
2023-04-22T18:02:33.867Z,19.10
2023-04-22T18:05:01.323Z,19.00
2023-04-22T18:07:28.698Z,19.00
2023-04-22T18:09:56.204Z,18.90
2023-04-22T18:12:28.574Z,18.80
2023-04-22T18:14:57.482Z,18.80
2023-04-22T18:17:26.086Z,18.70
2023-04-22T18:20:02.786Z,18.60
2023-04-22T18:22:33.500Z,18.60
2023-04-22T18:25:02.168Z,18.60
2023-04-22T18:27:29.721Z,18.50
2023-04-22T18:29:56.938Z,18.50
2023-04-22T18:32:24.752Z,18.40
2023-04-22T18:34:52.018Z,18.40
2023-04-22T18:37:19.015Z,18.30
2023-04-22T18:39:46.612Z,18.20
2023-04-22T18:42:13.773Z,18.10
2023-04-22T18:44:41.673Z,18.00
2023-04-22T18:47:09.178Z,17.90
2023-04-22T18:49:36.203Z,17.90
2023-04-22T18:52:03.902Z,17.80
2023-04-22T18:54:31.155Z,17.80
2023-04-22T18:56:58.486Z,17.70
2023-04-22T18:59:25.786Z,17.70
2023-04-22T19:01:53.082Z,17.70
2023-04-22T19:04:20.385Z,17.70
2023-04-22T19:06:48.515Z,17.80
2023-04-22T19:09:16.156Z,17.80
2023-04-22T19:11:43.716Z,17.80
2023-04-22T19:14:10.825Z,17.70
2023-04-22T19:16:38.350Z,17.60
2023-04-22T19:19:05.792Z,17.60
2023-04-22T19:21:34.848Z,17.60
2023-04-22T19:24:01.992Z,17.60
2023-04-22T19:26:29.955Z,17.50
2023-04-22T19:28:57.275Z,17.40
2023-04-22T19:31:25.756Z,17.40
2023-04-22T19:33:53.837Z,17.30
2023-04-22T19:36:21.176Z,17.10
2023-04-22T19:38:48.348Z,17.00
2023-04-22T19:41:15.450Z,17.00
2023-04-22T19:43:43.133Z,16.90
2023-04-22T19:46:13.256Z,16.80
2023-04-22T19:48:43.335Z,16.80
2023-04-22T19:51:11.915Z,16.70
2023-04-22T19:53:40.106Z,16.70
2023-04-22T19:56:18.247Z,16.60
2023-04-22T19:58:47.375Z,16.60
2023-04-22T20:01:15.280Z,16.50
2023-04-22T20:03:43.664Z,16.50
2023-04-22T20:06:13.070Z,16.40
2023-04-22T20:08:44.184Z,16.40
2023-04-22T20:11:12.755Z,16.40
2023-04-22T20:13:42.008Z,16.40
2023-04-22T20:16:14.388Z,16.40
2023-04-22T20:18:44.543Z,16.30
2023-04-22T20:21:12.094Z,16.30
2023-04-22T20:23:42.674Z,16.30
2023-04-22T20:26:10.325Z,16.30
2023-04-22T20:28:45.486Z,16.20
2023-04-22T20:31:13.747Z,16.20
2023-04-22T20:33:41.353Z,16.20
2023-04-22T20:36:08.868Z,16.20
2023-04-22T20:38:39.440Z,16.20
2023-04-22T20:41:07.668Z,16.10
2023-04-22T20:43:37.827Z,16.10
2023-04-22T20:46:05.655Z,16.00
2023-04-22T20:48:33.060Z,16.00
2023-04-22T20:51:00.221Z,16.00
2023-04-22T20:53:28.459Z,16.00
2023-04-22T20:55:56.099Z,15.90
2023-04-22T20:58:23.130Z,15.90
2023-04-22T21:00:50.626Z,15.90
2023-04-22T21:03:19.179Z,15.80
2023-04-22T21:05:47.015Z,15.80
2023-04-22T21:08:21.622Z,15.80
2023-04-22T21:10:49.821Z,15.80
2023-04-22T21:13:17.882Z,15.80
2023-04-22T21:15:47.768Z,15.80
2023-04-22T21:18:15.647Z,15.80
2023-04-22T21:20:46.820Z,15.80
2023-04-22T21:23:14.378Z,15.80
2023-04-22T21:25:41.669Z,15.80
2023-04-22T21:28:09.597Z,15.80
2023-04-22T21:30:37.063Z,15.80
2023-04-22T21:33:04.719Z,15.80
2023-04-22T21:35:31.996Z,15.90
2023-04-22T21:37:59.268Z,15.90
2023-04-22T21:40:26.598Z,15.80
2023-04-22T21:42:53.746Z,15.80
2023-04-22T21:45:21.150Z,15.80
2023-04-22T21:47:48.421Z,15.80
2023-04-22T21:50:15.646Z,15.80
2023-04-22T21:52:42.823Z,15.80
2023-04-22T21:55:12.045Z,15.80
2023-04-22T21:57:39.625Z,15.80
2023-04-22T22:00:18.061Z,15.80
2023-04-22T22:02:46.487Z,15.80
2023-04-22T22:05:14.303Z,15.80
2023-04-22T22:07:43.247Z,15.80
2023-04-22T22:10:12.976Z,15.70
2023-04-22T22:12:40.295Z,15.70
2023-04-22T22:15:10.083Z,15.60
2023-04-22T22:17:40.077Z,15.60
2023-04-22T22:20:11.683Z,15.60
2023-04-22T22:22:41.015Z,15.60
2023-04-22T22:25:09.903Z,15.50
2023-04-22T22:27:41.321Z,15.50
2023-04-22T22:30:08.913Z,15.50
2023-04-22T22:32:36.611Z,15.50
2023-04-22T22:35:04.335Z,15.40
2023-04-22T22:37:31.751Z,15.40
2023-04-22T22:39:59.419Z,15.40
2023-04-22T22:42:26.995Z,15.40
2023-04-22T22:44:54.246Z,15.40
2023-04-22T22:47:21.545Z,15.40
2023-04-22T22:49:48.620Z,15.40
2023-04-22T22:52:15.763Z,15.40
2023-04-22T22:54:43.553Z,15.40
2023-04-22T22:57:11.981Z,15.40
2023-04-22T22:59:39.496Z,15.30
2023-04-22T23:02:06.782Z,15.30
2023-04-22T23:04:34.036Z,15.30
2023-04-22T23:07:02.157Z,15.20
2023-04-22T23:09:29.434Z,15.20
2023-04-22T23:11:56.906Z,15.20
2023-04-22T23:14:24.496Z,15.10
2023-04-22T23:16:51.540Z,15.10
2023-04-22T23:19:18.835Z,15.10
2023-04-22T23:21:47.028Z,15.10
2023-04-22T23:24:15.254Z,15.10
2023-04-22T23:26:42.860Z,15.10
2023-04-22T23:29:14.354Z,15.00
2023-04-22T23:31:42.368Z,15.00
2023-04-22T23:34:09.711Z,15.00
2023-04-22T23:36:37.801Z,14.90
2023-04-22T23:39:08.234Z,14.80
2023-04-22T23:41:35.551Z,14.80
2023-04-22T23:44:02.780Z,14.70
2023-04-22T23:46:29.863Z,14.60
2023-04-22T23:48:57.809Z,14.60
2023-04-22T23:51:25.324Z,14.50
2023-04-22T23:53:52.300Z,14.50
2023-04-22T23:56:21.503Z,14.50
2023-04-22T23:58:49.408Z,14.50
